Time;durP1;ratioP1;P1;durP2;ratioP2;P2;SDS_P1;SDS_P2;PMS_P1;PMS_P2;Temp;Humidity;BMP_temperature;BMP_pressure;BME280_temperature;BME280_humidity;BME280_pressure;Samples;Min_cycle;Max_cycle;Signal;HPM_P1;HPM_P2
2023/06/25 00:00:53;;;;;;;9.38;7.03;;;19.90;65.10;;;;;;6055785;23;20047;-77
2023/06/25 00:03:19;;;;;;;9.80;7.22;;;19.80;65.30;;;;;;6055884;23;20393;-78
2023/06/25 00:05:45;;;;;;;7.82;6.68;;;19.70;65.50;;;;;;6031096;23;20058;-76
2023/06/25 00:08:10;;;;;;;10.35;7.85;;;19.70;65.00;;;;;;6030488;23;20019;-77
2023/06/25 00:10:36;;;;;;;9.55;7.10;;;19.70;66.30;;;;;;6055228;23;20409;-76
2023/06/25 00:13:02;;;;;;;18.17;7.35;;;19.60;65.90;;;;;;6031512;23;20506;-76
2023/06/25 00:15:27;;;;;;;7.45;5.78;;;19.50;66.00;;;;;;6055724;23;20050;-76
2023/06/25 00:17:53;;;;;;;8.77;6.82;;;19.50;66.60;;;;;;6055179;23;20074;-76
2023/06/25 00:20:19;;;;;;;10.27;7.63;;;19.40;66.50;;;;;;6030678;23;20022;-76
2023/06/25 00:22:45;;;;;;;9.32;7.40;;;19.30;67.10;;;;;;6055271;23;20011;-77
2023/06/25 00:25:14;;;;;;;7.97;6.75;;;19.30;67.10;;;;;;6031279;23;20015;-77
2023/06/25 00:27:40;;;;;;;9.98;6.45;;;19.20;67.90;;;;;;6055282;23;20011;-76
2023/06/25 00:30:07;;;;;;;10.23;6.65;;;19.20;68.20;;;;;;6055092;23;20484;-76
2023/06/25 00:32:33;;;;;;;8.85;6.55;;;19.10;68.90;;;;;;6055155;23;20393;-76
2023/06/25 00:35:00;;;;;;;10.98;6.22;;;18.90;69.80;;;;;;6057570;23;20019;-76
2023/06/25 00:37:25;;;;;;;10.90;6.32;;;18.90;69.40;;;;;;6033902;23;20070;-78
2023/06/25 00:39:51;;;;;;;6.97;5.70;;;18.90;67.80;;;;;;6057534;23;20090;-78
2023/06/25 00:42:17;;;;;;;8.45;5.65;;;18.90;67.50;;;;;;6033044;23;20011;-78
2023/06/25 00:44:42;;;;;;;7.28;6.57;;;19.10;67.30;;;;;;6057272;23;20017;-78
2023/06/25 00:47:12;;;;;;;6.75;5.85;;;18.90;67.80;;;;;;6033589;23;20067;-79
2023/06/25 00:49:44;;;;;;;9.63;6.75;;;18.80;68.80;;;;;;6057820;23;20010;-79
2023/06/25 00:52:11;;;;;;;8.88;6.55;;;18.70;69.60;;;;;;6033259;23;20102;-78
2023/06/25 00:54:41;;;;;;;11.88;6.78;;;18.70;68.60;;;;;;6057379;23;20122;-78
2023/06/25 00:57:07;;;;;;;8.45;6.28;;;18.60;69.30;;;;;;6009364;23;20090;-79
2023/06/25 00:59:42;;;;;;;9.05;6.78;;;18.60;68.50;;;;;;6056634;23;20050;-79
2023/06/25 01:02:18;;;;;;;10.23;6.15;;;18.50;68.80;;;;;;6010681;23;20106;-79
2023/06/25 01:04:50;;;;;;;9.32;6.30;;;18.50;68.30;;;;;;6010849;23;20541;-80
2023/06/25 01:07:17;;;;;;;7.05;6.30;;;18.40;69.40;;;;;;6057016;23;20464;-80
2023/06/25 01:09:48;;;;;;;8.05;6.28;;;18.40;70.60;;;;;;6056352;23;20010;-80
2023/06/25 01:12:14;;;;;;;8.18;7.10;;;18.30;71.00;;;;;;6032307;23;20022;-80
2023/06/25 01:14:40;;;;;;;9.02;5.95;;;18.20;71.90;;;;;;6056854;23;20015;-80
2023/06/25 01:17:06;;;;;;;7.68;6.15;;;18.00;72.60;;;;;;6033408;23;20454;-80
2023/06/25 01:19:32;;;;;;;9.45;6.25;;;18.10;71.10;;;;;;6057077;23;20046;-80
2023/06/25 01:21:59;;;;;;;8.93;6.32;;;18.10;71.50;;;;;;6056772;23;20011;-80
2023/06/25 01:24:25;;;;;;;6.95;5.95;;;18.10;70.90;;;;;;6057112;23;20039;-80
2023/06/25 01:26:54;;;;;;;10.82;6.30;;;18.00;70.30;;;;;;6031766;23;20042;-80
2023/06/25 01:29:20;;;;;;;8.77;6.35;;;18.00;70.30;;;;;;6056783;23;20049;-80
2023/06/25 01:31:45;;;;;;;7.88;6.05;;;18.00;70.30;;;;;;6056677;23;20019;-80
2023/06/25 01:34:11;;;;;;;7.18;6.25;;;17.90;70.30;;;;;;6057113;23;20019;-80
2023/06/25 01:36:40;;;;;;;5.53;4.28;;;17.80;70.70;;;;;;6057021;23;20018;-80
2023/06/25 01:39:06;;;;;;;5.47;4.53;;;17.90;69.40;;;;;;6057294;23;20489;-80
2023/06/25 01:41:33;;;;;;;4.90;4.30;;;18.00;68.60;;;;;;6056328;23;20018;-80
2023/06/25 01:43:58;;;;;;;8.15;6.07;;;17.90;68.90;;;;;;6031798;23;20410;-80
2023/06/25 01:46:24;;;;;;;11.32;6.60;;;17.80;69.70;;;;;;6056313;23;20023;-79
2023/06/25 01:48:49;;;;;;;9.00;6.43;;;17.70;70.00;;;;;;6032700;23;20015;-79
2023/06/25 01:51:15;;;;;;;10.68;7.03;;;17.70;70.70;;;;;;6052899;23;20023;-80
2023/06/25 01:53:41;;;;;;;11.55;7.57;;;17.60;71.20;;;;;;6032733;23;20030;-79
2023/06/25 01:56:06;;;;;;;9.18;6.70;;;17.50;72.20;;;;;;6032527;23;20047;-79
2023/06/25 01:58:32;;;;;;;11.63;6.82;;;17.40;74.60;;;;;;6032616;23;20039;-79
2023/06/25 02:00:57;;;;;;;8.93;6.88;;;17.30;75.10;;;;;;6057092;23;20038;-79
2023/06/25 02:03:23;;;;;;;7.35;6.18;;;17.10;76.80;;;;;;6056665;23;20335;-79
2023/06/25 02:05:48;;;;;;;8.55;6.68;;;17.20;78.40;;;;;;6031884;23;20486;-79
2023/06/25 02:08:14;;;;;;;8.43;6.40;;;17.30;78.20;;;;;;6032429;23;20476;-79
2023/06/25 02:10:39;;;;;;;8.52;6.50;;;17.10;79.00;;;;;;6057345;23;20054;-78
2023/06/25 02:13:05;;;;;;;8.63;6.47;;;17.20;79.50;;;;;;6056185;23;20027;-79
2023/06/25 02:15:31;;;;;;;8.35;6.40;;;17.10;79.80;;;;;;6056404;23;20019;-79
2023/06/25 02:17:56;;;;;;;8.93;5.90;;;17.10;80.40;;;;;;6055658;23;20047;-79
2023/06/25 02:20:22;;;;;;;9.02;7.15;;;17.10;79.20;;;;;;6056802;23;20019;-79
2023/06/25 02:22:48;;;;;;;7.20;6.50;;;17.00;81.90;;;;;;6055868;23;20307;-79
2023/06/25 02:25:13;;;;;;;8.00;6.30;;;17.00;83.70;;;;;;6031284;23;20042;-79
2023/06/25 02:27:39;;;;;;;10.68;6.85;;;17.00;82.80;;;;;;6032670;23;20710;-79
2023/06/25 02:30:05;;;;;;;12.00;6.97;;;17.10;80.00;;;;;;6055727;23;20438;-79
2023/06/25 02:32:31;;;;;;;9.10;6.55;;;17.10;79.20;;;;;;6031494;23;20034;-79
2023/06/25 02:34:56;;;;;;;10.77;6.95;;;16.80;81.50;;;;;;6056376;23;20006;-79
2023/06/25 02:37:22;;;;;;;7.70;6.05;;;16.90;81.00;;;;;;6034095;23;20011;-79
2023/06/25 02:39:47;;;;;;;8.77;7.13;;;16.80;83.80;;;;;;6057999;23;20003;-79
2023/06/25 02:42:13;;;;;;;10.18;6.55;;;16.80;82.90;;;;;;6057936;23;20018;-79
2023/06/25 02:44:38;;;;;;;11.52;7.55;;;16.80;83.40;;;;;;6034663;23;20070;-79
2023/06/25 02:47:04;;;;;;;9.63;6.88;;;16.80;83.50;;;;;;6058004;23;19999;-79
2023/06/25 02:49:30;;;;;;;10.77;6.47;;;16.70;85.00;;;;;;6058105;23;20015;-79
2023/06/25 02:51:55;;;;;;;14.68;6.55;;;16.70;85.70;;;;;;6034218;23;20022;-80
2023/06/25 02:54:21;;;;;;;11.25;6.72;;;16.60;87.00;;;;;;6033910;23;20015;-79
2023/06/25 02:56:46;;;;;;;9.68;6.72;;;16.60;86.70;;;;;;6057867;23;20366;-78
2023/06/25 02:59:12;;;;;;;10.52;6.68;;;16.60;88.00;;;;;;6058343;23;20118;-77
2023/06/25 03:01:38;;;;;;;13.45;7.53;;;16.60;86.60;;;;;;6034562;23;20019;-76
2023/06/25 03:04:03;;;;;;;12.23;7.18;;;16.60;87.30;;;;;;6033901;23;20082;-76
2023/06/25 03:06:29;;;;;;;7.70;6.32;;;16.40;90.00;;;;;;6057318;23;20023;-77
2023/06/25 03:08:55;;;;;;;14.30;6.35;;;16.50;89.10;;;;;;6056983;23;20011;-77
2023/06/25 03:11:20;;;;;;;8.00;6.72;;;16.50;85.70;;;;;;6033051;23;20453;-78
2023/06/25 03:13:46;;;;;;;12.02;8.27;;;16.60;85.20;;;;;;6031964;23;20011;-78
2023/06/25 03:16:11;;;;;;;10.65;7.30;;;16.50;87.40;;;;;;6056485;23;20023;-77
2023/06/25 03:18:37;;;;;;;9.88;6.82;;;16.40;88.40;;;;;;6032010;23;20011;-77
2023/06/25 03:21:02;;;;;;;8.45;6.40;;;16.40;88.30;;;;;;6031813;23;20033;-77
2023/06/25 03:23:28;;;;;;;9.82;7.43;;;16.40;91.10;;;;;;6055770;23;20023;-76
2023/06/25 03:25:53;;;;;;;8.43;6.65;;;16.40;91.30;;;;;;6055296;23;20442;-76
2023/06/25 03:28:19;;;;;;;9.63;7.00;;;16.30;92.90;;;;;;6055681;23;20446;-76
2023/06/25 03:30:46;;;;;;;7.82;6.53;;;16.10;93.50;;;;;;6056008;23;20587;-78
2023/06/25 03:33:12;;;;;;;13.02;6.75;;;16.20;93.60;;;;;;6055982;23;20057;-78
2023/06/25 03:35:37;;;;;;;12.15;7.10;;;16.20;93.20;;;;;;6031428;23;20093;-78
2023/06/25 03:38:03;;;;;;;12.27;7.47;;;16.10;93.80;;;;;;6031406;23;20029;-77
2023/06/25 03:40:28;;;;;;;8.93;7.22;;;16.30;92.50;;;;;;6055019;23;20017;-77
2023/06/25 03:42:54;;;;;;;9.40;7.10;;;16.30;93.50;;;;;;6022735;23;20013;-77
2023/06/25 03:45:19;;;;;;;8.02;7.18;;;16.20;94.10;;;;;;6031851;23;20011;-78
2023/06/25 03:47:45;;;;;;;9.15;6.82;;;16.20;94.90;;;;;;6031070;23;20007;-78
2023/06/25 03:50:10;;;;;;;7.50;6.70;;;16.20;95.00;;;;;;6057584;23;20022;-78
2023/06/25 03:52:36;;;;;;;7.88;6.57;;;16.20;96.00;;;;;;6055635;23;20089;-77
2023/06/25 03:55:02;;;;;;;11.73;7.35;;;16.20;96.50;;;;;;6031731;23;20026;-77
2023/06/25 03:57:29;;;;;;;12.07;7.00;;;16.40;96.30;;;;;;6055382;23;20015;-77
2023/06/25 03:59:54;;;;;;;11.32;8.35;;;16.40;94.20;;;;;;6031748;23;20015;-77
2023/06/25 04:02:20;;;;;;;7.45;6.65;;;16.40;95.70;;;;;;6047882;23;20010;-77
2023/06/25 04:04:45;;;;;;;10.02;7.50;;;16.50;96.20;;;;;;6031494;23;20434;-77
2023/06/25 04:07:11;;;;;;;7.93;6.85;;;16.70;95.90;;;;;;6032452;23;20018;-77
2023/06/25 04:09:36;;;;;;;12.50;7.53;;;16.70;98.10;;;;;;6031240;23;20338;-77
2023/06/25 04:12:02;;;;;;;10.88;6.95;;;16.90;99.90;;;;;;6055502;23;20701;-77
2023/06/25 04:14:28;;;;;;;9.68;7.20;;;17.00;99.90;;;;;;6055016;23;20018;-77
2023/06/25 04:16:53;;;;;;;10.23;6.90;;;17.20;99.90;;;;;;6054817;23;20086;-77
2023/06/25 04:19:19;;;;;;;9.70;6.30;;;17.40;99.30;;;;;;6055179;23;20019;-77
2023/06/25 04:21:44;;;;;;;8.02;6.72;;;17.50;99.70;;;;;;6055545;23;20022;-77
2023/06/25 04:24:10;;;;;;;10.98;7.22;;;17.60;99.40;;;;;;6055530;23;20065;-76
2023/06/25 04:26:36;;;;;;;8.43;5.85;;;17.70;99.90;;;;;;6031299;23;20026;-76
2023/06/25 04:29:01;;;;;;;9.45;6.60;;;18.00;98.90;;;;;;6055038;23;20015;-76
2023/06/25 04:31:27;;;;;;;9.75;6.95;;;18.10;98.30;;;;;;6055531;23;20090;-77
2023/06/25 04:33:52;;;;;;;8.15;6.45;;;18.30;97.70;;;;;;6055638;23;20022;-77
2023/06/25 04:36:19;;;;;;;6.65;5.95;;;18.50;97.40;;;;;;6030609;23;20390;-76
2023/06/25 04:38:44;;;;;;;10.15;6.35;;;18.70;96.60;;;;;;6054623;23;20019;-76
2023/06/25 04:41:10;;;;;;;10.40;6.47;;;19.00;96.10;;;;;;6056498;23;20074;-77
2023/06/25 04:43:35;;;;;;;6.70;5.78;;;19.20;95.60;;;;;;6055013;23;20046;-76
2023/06/25 04:46:01;;;;;;;7.32;6.18;;;19.40;94.90;;;;;;6031128;23;20030;-76
2023/06/25 04:48:27;;;;;;;10.10;6.13;;;19.60;94.00;;;;;;6057583;23;20015;-77
2023/06/25 04:50:52;;;;;;;12.25;6.07;;;19.80;94.70;;;;;;6055757;23;20011;-76
2023/06/25 04:53:18;;;;;;;8.05;6.38;;;20.00;95.00;;;;;;6031071;23;20072;-77
2023/06/25 04:55:43;;;;;;;6.43;5.78;;;20.20;95.20;;;;;;6032140;23;20116;-76
2023/06/25 04:58:09;;;;;;;26.15;5.93;;;20.40;95.80;;;;;;6008586;23;20018;-76
2023/06/25 05:00:34;;;;;;;7.20;5.47;;;20.50;96.00;;;;;;6055112;23;20026;-77
2023/06/25 05:03:00;;;;;;;6.43;5.38;;;20.80;95.80;;;;;;6054895;23;20051;-77
2023/06/25 05:05:25;;;;;;;10.15;6.32;;;21.00;96.00;;;;;;6031100;23;20019;-77
2023/06/25 05:07:51;;;;;;;10.07;6.18;;;21.30;96.10;;;;;;6030795;23;20011;-77
2023/06/25 05:10:18;;;;;;;6.97;5.95;;;21.50;96.10;;;;;;6030522;23;20042;-77
2023/06/25 05:12:43;;;;;;;9.48;6.05;;;21.80;96.10;;;;;;6032309;23;20089;-77
2023/06/25 05:15:10;;;;;;;11.95;6.03;;;22.00;95.50;;;;;;6031980;23;20086;-77
2023/06/25 05:17:35;;;;;;;6.55;5.38;;;22.20;95.10;;;;;;6054668;23;20323;-77
2023/06/25 05:20:01;;;;;;;8.93;6.07;;;22.50;95.10;;;;;;6054914;23;20106;-77
2023/06/25 05:22:26;;;;;;;9.18;6.10;;;22.70;94.80;;;;;;6056837;23;20353;-76
2023/06/25 05:24:52;;;;;;;7.75;6.60;;;23.00;93.90;;;;;;6057076;23;20454;-77
2023/06/25 05:27:17;;;;;;;12.10;6.70;;;23.20;93.60;;;;;;6056640;23;20015;-77
2023/06/25 05:29:43;;;;;;;7.03;6.30;;;23.40;93.40;;;;;;6033168;23;20011;-77
2023/06/25 05:32:08;;;;;;;7.57;6.00;;;23.70;93.30;;;;;;6033054;23;20045;-77
2023/06/25 05:34:34;;;;;;;14.25;6.38;;;23.90;92.80;;;;;;6056409;23;20082;-77
2023/06/25 05:36:59;;;;;;;7.93;5.85;;;24.20;92.60;;;;;;6056585;23;20078;-77
2023/06/25 05:39:28;;;;;;;16.08;6.65;;;24.40;92.10;;;;;;6057014;23;20058;-77
2023/06/25 05:41:58;;;;;;;8.35;5.82;;;24.70;91.60;;;;;;6058514;23;20015;-77
2023/06/25 05:44:24;;;;;;;8.30;6.20;;;24.90;91.40;;;;;;6056409;23;20039;-76
2023/06/25 05:46:50;;;;;;;8.45;5.70;;;25.20;91.10;;;;;;6056334;23;20026;-77
2023/06/25 05:49:16;;;;;;;13.93;6.20;;;25.40;90.70;;;;;;6032069;23;20015;-77
2023/06/25 05:51:41;;;;;;;9.02;6.15;;;25.70;90.30;;;;;;6057514;23;20355;-76
2023/06/25 05:54:07;;;;;;;7.22;6.35;;;25.90;89.50;;;;;;6032833;23;20346;-76
2023/06/25 05:56:32;;;;;;;8.77;5.45;;;26.10;88.70;;;;;;6056142;23;20021;-76
2023/06/25 05:58:58;;;;;;;9.68;5.10;;;26.40;88.00;;;;;;6056902;23;20101;-77
2023/06/25 06:01:25;;;;;;;8.40;6.00;;;26.60;87.00;;;;;;6054723;23;20014;-76
2023/06/25 06:03:51;;;;;;;9.15;5.85;;;26.80;86.80;;;;;;6053672;23;20399;-76
2023/06/25 06:06:17;;;;;;;6.93;5.40;;;27.10;85.60;;;;;;6056007;23;20022;-77
2023/06/25 06:08:42;;;;;;;6.35;4.55;;;27.30;84.70;;;;;;6056664;23;20026;-76
2023/06/25 06:11:08;;;;;;;5.70;4.50;;;27.60;84.10;;;;;;6031930;23;20027;-76
2023/06/25 06:13:34;;;;;;;8.80;5.40;;;27.80;83.30;;;;;;6056558;23;20070;-76
2023/06/25 06:16:00;;;;;;;5.70;4.55;;;28.00;82.50;;;;;;6032502;23;20019;-76
2023/06/25 06:18:25;;;;;;;7.53;4.93;;;28.20;81.60;;;;;;6032855;23;20026;-76
2023/06/25 06:20:51;;;;;;;6.13;5.53;;;28.40;80.70;;;;;;6055663;23;20143;-76
2023/06/25 06:23:16;;;;;;;5.82;5.00;;;28.60;80.00;;;;;;6056690;23;20088;-76
2023/06/25 06:25:42;;;;;;;6.40;4.95;;;28.80;79.10;;;;;;6057169;23;20023;-77
2023/06/25 06:28:07;;;;;;;10.85;5.22;;;29.00;78.10;;;;;;6032741;23;20442;-77
2023/06/25 06:30:33;;;;;;;7.05;5.15;;;29.20;77.80;;;;;;6056289;23;20019;-78
2023/06/25 06:32:58;;;;;;;5.10;4.63;;;29.50;76.70;;;;;;6056380;23;20007;-77
2023/06/25 06:35:24;;;;;;;5.40;3.85;;;29.70;75.40;;;;;;6032505;23;20445;-77
2023/06/25 06:37:49;;;;;;;8.93;5.70;;;29.60;70.00;;;;;;6056300;23;20485;-77
2023/06/25 06:40:15;;;;;;;6.20;5.30;;;29.80;74.70;;;;;;6031924;23;20022;-78
2023/06/25 06:42:40;;;;;;;6.93;5.07;;;30.20;73.50;;;;;;6057418;23;20054;-77
2023/06/25 06:45:06;;;;;;;4.72;4.25;;;30.40;72.70;;;;;;6056054;23;20006;-77
2023/06/25 06:47:32;;;;;;;8.60;5.78;;;30.10;68.90;;;;;;6054804;23;20007;-77
2023/06/25 06:49:58;;;;;;;5.35;4.80;;;30.50;72.20;;;;;;6032099;23;20011;-77
2023/06/25 06:52:25;;;;;;;6.28;5.45;;;30.90;70.20;;;;;;6056323;23;20057;-78
2023/06/25 06:54:50;;;;;;;7.43;5.25;;;31.20;69.30;;;;;;6032527;23;20354;-78
2023/06/25 06:57:16;;;;;;;7.25;4.72;;;31.50;67.80;;;;;;6056092;23;20022;-79
2023/06/25 06:59:41;;;;;;;4.75;4.25;;;31.70;67.40;;;;;;6057119;23;20011;-78
2023/06/25 07:02:07;;;;;;;6.88;5.35;;;31.70;67.40;;;;;;6032263;23;20081;-79
2023/06/25 07:04:33;;;;;;;5.03;4.63;;;31.90;66.60;;;;;;6055518;23;20085;-78
2023/06/25 07:06:58;;;;;;;4.72;4.32;;;32.10;66.60;;;;;;6055329;23;20102;-77
2023/06/25 07:09:25;;;;;;;7.60;4.53;;;32.00;62.80;;;;;;6055933;23;20015;-78
2023/06/25 07:11:50;;;;;;;5.90;4.75;;;31.40;65.30;;;;;;6032212;23;20018;-78
2023/06/25 07:14:16;;;;;;;4.93;4.50;;;32.20;65.90;;;;;;6031729;23;20019;-79
2023/06/25 07:16:41;;;;;;;8.27;4.65;;;32.40;65.10;;;;;;6031980;23;20446;-78
2023/06/25 07:19:07;;;;;;;4.65;4.20;;;33.00;64.00;;;;;;6054380;23;20018;-80
2023/06/25 07:21:33;;;;;;;6.53;5.55;;;33.10;63.40;;;;;;6030227;23;20106;-80
2023/06/25 07:23:59;;;;;;;5.13;4.45;;;33.30;62.90;;;;;;6055877;23;20019;-80
2023/06/25 07:26:25;;;;;;;4.90;4.43;;;33.40;62.40;;;;;;6057664;23;20133;-80
2023/06/25 07:28:50;;;;;;;5.95;4.53;;;33.30;60.90;;;;;;6032148;23;20413;-80
2023/06/25 07:31:16;;;;;;;8.57;5.18;;;33.40;59.80;;;;;;6055457;23;20018;-79
2023/06/25 07:33:41;;;;;;;5.05;3.88;;;33.90;60.10;;;;;;6056520;23;20026;-80
2023/06/25 07:36:07;;;;;;;3.88;3.42;;;33.90;58.70;;;;;;6055485;23;20007;-81
2023/06/25 07:38:32;;;;;;;5.38;4.47;;;33.60;57.80;;;;;;6055339;23;20468;-80
2023/06/25 07:40:58;;;;;;;4.50;4.07;;;33.30;60.60;;;;;;6055330;23;20018;-80
2023/06/25 07:43:24;;;;;;;4.45;4.05;;;33.50;57.30;;;;;;6031701;23;20011;-80
2023/06/25 07:45:49;;;;;;;4.40;4.00;;;33.80;57.50;;;;;;6055478;23;20020;-80
2023/06/25 07:48:15;;;;;;;4.50;4.07;;;33.50;56.30;;;;;;6055845;23;20034;-80
2023/06/25 07:50:40;;;;;;;6.50;4.35;;;33.50;56.80;;;;;;6054246;23;20026;-80
2023/06/25 07:53:06;;;;;;;4.22;3.83;;;33.90;56.00;;;;;;6046028;23;20019;-79
2023/06/25 07:55:39;;;;;;;7.53;4.30;;;34.30;56.60;;;;;;6054698;23;20015;-80
2023/06/25 07:58:05;;;;;;;5.03;4.55;;;34.20;54.70;;;;;;6032285;23;20014;-80
2023/06/25 08:00:30;;;;;;;4.53;3.90;;;34.30;53.60;;;;;;6031774;23;20101;-79
2023/06/25 08:02:56;;;;;;;4.95;4.45;;;34.20;55.00;;;;;;6055487;23;20011;-80
2023/06/25 08:05:22;;;;;;;4.88;4.20;;;34.10;55.90;;;;;;6054269;23;20029;-80
2023/06/25 08:07:47;;;;;;;4.55;4.13;;;34.60;54.50;;;;;;6031963;23;20007;-79
2023/06/25 08:10:13;;;;;;;4.80;4.40;;;34.80;54.40;;;;;;6054672;23;20021;-80
2023/06/25 08:12:39;;;;;;;4.50;3.80;;;35.20;54.10;;;;;;6031290;23;20019;-80
2023/06/25 08:15:04;;;;;;;4.68;4.28;;;35.00;52.40;;;;;;6055731;23;20007;-80
2023/06/25 08:17:30;;;;;;;4.70;4.30;;;34.50;53.60;;;;;;6056765;23;20087;-78
2023/06/25 08:19:55;;;;;;;5.03;4.50;;;34.70;51.70;;;;;;6031698;23;20462;-78
2023/06/25 08:22:21;;;;;;;8.05;4.55;;;35.40;53.90;;;;;;6056869;23;20026;-78
2023/06/25 08:24:47;;;;;;;5.00;4.47;;;35.30;52.40;;;;;;6031899;23;20657;-78
2023/06/25 08:27:12;;;;;;;5.50;3.97;;;35.00;49.60;;;;;;6054847;23;20057;-78
2023/06/25 08:29:38;;;;;;;4.28;3.88;;;35.70;51.90;;;;;;6055741;23;20006;-78
2023/06/25 08:32:04;;;;;;;4.38;3.97;;;35.90;51.40;;;;;;6030974;23;20450;-77
2023/06/25 08:34:29;;;;;;;5.07;4.45;;;36.10;49.20;;;;;;6007945;23;20015;-78
2023/06/25 08:36:55;;;;;;;4.40;4.00;;;35.40;48.70;;;;;;6031601;23;20011;-77
2023/06/25 08:39:21;;;;;;;5.03;4.53;;;35.30;48.70;;;;;;6056594;23;20077;-77
2023/06/25 08:41:47;;;;;;;5.45;4.03;;;35.60;49.70;;;;;;6031021;23;20010;-78
2023/06/25 08:44:12;;;;;;;6.15;3.88;;;36.40;49.80;;;;;;6033081;23;20019;-77
2023/06/25 08:46:38;;;;;;;4.28;3.88;;;36.10;48.20;;;;;;6054061;23;20039;-77
2023/06/25 08:49:05;;;;;;;4.80;4.18;;;36.00;48.60;;;;;;6054684;23;20367;-77
2023/06/25 08:51:30;;;;;;;5.63;4.55;;;35.90;46.60;;;;;;6030424;23;20129;-77
2023/06/25 08:53:57;;;;;;;4.53;4.10;;;35.80;47.30;;;;;;6055710;23;20050;-77
2023/06/25 08:56:22;;;;;;;4.72;4.20;;;36.50;48.80;;;;;;6056916;23;20007;-77
2023/06/25 08:58:48;;;;;;;4.80;4.25;;;36.90;48.50;;;;;;6058363;23;20011;-77
2023/06/25 09:01:13;;;;;;;4.50;4.10;;;37.10;46.70;;;;;;6055532;23;20018;-77
2023/06/25 09:03:42;;;;;;;4.55;4.15;;;37.20;46.70;;;;;;6056516;23;20769;-77
2023/06/25 09:06:16;;;;;;;4.13;3.83;;;36.70;46.00;;;;;;6022622;23;20060;-76
2023/06/25 09:08:42;;;;;;;4.95;4.47;;;36.80;45.90;;;;;;6056750;23;20129;-76
2023/06/25 09:11:08;;;;;;;4.88;4.47;;;36.60;46.50;;;;;;6056715;23;20026;-77
2023/06/25 09:13:34;;;;;;;4.20;3.80;;;36.80;46.70;;;;;;6032760;23;20015;-77
2023/06/25 09:16:03;;;;;;;4.30;3.85;;;36.90;46.30;;;;;;6033247;23;20518;-82
2023/06/25 09:18:32;;;;;;;4.38;3.97;;;37.00;46.40;;;;;;6056427;23;20019;-77
2023/06/25 09:21:02;;;;;;;5.07;4.57;;;37.30;45.60;;;;;;6056508;23;20054;-77
2023/06/25 09:23:28;;;;;;;5.00;4.60;;;37.40;45.80;;;;;;6057061;23;20457;-78
2023/06/25 09:25:53;;;;;;;13.88;4.55;;;37.30;44.40;;;;;;6056449;23;20026;-77
2023/06/25 09:28:19;;;;;;;5.07;3.90;;;37.40;44.80;;;;;;6032979;23;20412;-78
2023/06/25 09:30:45;;;;;;;4.57;4.18;;;37.40;46.20;;;;;;6032776;23;20327;-77
2023/06/25 09:33:11;;;;;;;4.68;3.95;;;37.80;44.70;;;;;;6054971;23;20015;-78
2023/06/25 09:35:37;;;;;;;4.28;3.88;;;37.80;43.50;;;;;;6032721;23;20458;-77
2023/06/25 09:38:04;;;;;;;11.73;4.78;;;38.20;43.50;;;;;;6056826;23;20106;-78
2023/06/25 09:40:29;;;;;;;3.83;3.53;;;38.20;45.20;;;;;;6032748;23;20015;-78
2023/06/25 09:42:56;;;;;;;6.53;4.22;;;38.30;42.60;;;;;;6056805;23;20018;-77
2023/06/25 09:45:23;;;;;;;4.18;3.78;;;38.30;44.10;;;;;;6057080;23;20011;-77
2023/06/25 09:47:49;;;;;;;4.45;4.05;;;38.40;44.40;;;;;;6032399;23;20501;-78
2023/06/25 09:50:16;;;;;;;4.82;4.43;;;38.40;44.80;;;;;;6056564;23;20042;-78
2023/06/25 09:52:50;;;;;;;4.88;4.47;;;38.80;44.40;;;;;;6055529;23;20011;-77
2023/06/25 09:55:16;;;;;;;4.13;3.78;;;38.30;44.00;;;;;;6056998;23;20015;-77
2023/06/25 09:57:42;;;;;;;4.45;4.05;;;38.80;44.20;;;;;;6056359;23;20129;-77
2023/06/25 10:00:09;;;;;;;4.63;4.20;;;38.70;43.50;;;;;;6056726;23;20022;-77
2023/06/25 10:02:34;;;;;;;4.28;3.97;;;38.90;42.90;;;;;;6009729;23;20713;-77
2023/06/25 10:05:00;;;;;;;3.85;3.40;;;38.60;41.90;;;;;;6032660;23;20010;-80
2023/06/25 10:07:26;;;;;;;4.32;4.03;;;39.20;42.90;;;;;;6056362;23;20021;-79
2023/06/25 10:09:56;;;;;;;4.45;3.58;;;39.20;42.10;;;;;;6057085;23;20465;-79
2023/06/25 10:12:21;;;;;;;4.82;4.32;;;39.40;42.30;;;;;;6033199;23;20506;-79
2023/06/25 10:14:47;;;;;;;4.00;3.30;;;39.70;42.30;;;;;;6032216;23;20018;-79
2023/06/25 10:17:13;;;;;;;5.50;4.10;;;39.70;42.00;;;;;;6032909;23;20097;-79
2023/06/25 10:19:39;;;;;;;3.45;3.15;;;39.70;41.50;;;;;;6056868;23;20018;-81
2023/06/25 10:22:06;;;;;;;3.75;3.33;;;39.70;41.90;;;;;;6055063;23;20454;-79
2023/06/25 10:24:48;;;;;;;3.72;3.42;;;39.50;42.90;;;;;;6055773;23;20010;-79
2023/06/25 10:27:26;;;;;;;5.00;4.22;;;39.80;41.40;;;;;;6032538;23;20030;-81
2023/06/25 10:29:52;;;;;;;4.80;3.92;;;40.00;42.10;;;;;;6056857;23;20121;-81
2023/06/25 10:32:19;;;;;;;6.35;3.72;;;39.80;41.70;;;;;;6030765;23;20015;-80
2023/06/25 10:34:54;;;;;;;4.82;3.75;;;39.80;42.20;;;;;;6031524;23;20037;-79
2023/06/25 10:37:20;;;;;;;4.20;3.80;;;39.80;42.50;;;;;;6032681;23;20011;-80
2023/06/25 10:39:45;;;;;;;4.82;4.43;;;40.20;41.00;;;;;;6055949;23;20357;-80
2023/06/25 10:42:12;;;;;;;3.72;3.42;;;40.80;40.40;;;;;;6056457;23;20022;-80
2023/06/25 10:44:38;;;;;;;4.63;4.22;;;40.90;40.60;;;;;;6029372;23;20094;-79
2023/06/25 10:47:04;;;;;;;3.85;3.53;;;40.70;40.70;;;;;;6056254;23;20021;-80
2023/06/25 10:49:30;;;;;;;5.68;4.28;;;40.60;41.40;;;;;;6057942;23;20476;-80
2023/06/25 10:51:58;;;;;;;4.40;4.03;;;40.90;41.20;;;;;;6030162;23;20089;-80
2023/06/25 10:54:23;;;;;;;4.32;3.95;;;40.80;39.50;;;;;;6009309;23;20066;-81
2023/06/25 10:56:49;;;;;;;4.25;3.95;;;40.90;41.10;;;;;;6006409;23;20307;-81
2023/06/25 10:59:23;;;;;;;3.80;3.50;;;41.00;40.90;;;;;;6031532;23;20074;-81
2023/06/25 11:01:51;;;;;;;4.50;4.10;;;41.30;40.00;;;;;;6032549;23;20067;-81
2023/06/25 11:04:17;;;;;;;4.63;3.70;;;41.10;40.40;;;;;;6055597;23;20018;-80
2023/06/25 11:06:42;;;;;;;4.38;4.07;;;41.50;39.90;;;;;;6031645;23;20007;-81
2023/06/25 11:09:08;;;;;;;6.28;3.78;;;41.70;40.10;;;;;;6056329;23;20101;-81
2023/06/25 11:11:34;;;;;;;7.13;4.57;;;41.50;38.30;;;;;;6055950;23;20466;-81
2023/06/25 11:14:00;;;;;;;5.13;4.05;;;41.90;38.90;;;;;;6055666;23;20015;-81
2023/06/25 11:16:26;;;;;;;3.85;3.55;;;42.20;38.30;;;;;;6054429;23;20386;-81
2023/06/25 11:18:51;;;;;;;3.58;3.28;;;42.30;38.80;;;;;;6032613;23;20066;-81
2023/06/25 11:21:17;;;;;;;4.00;3.70;;;42.30;38.50;;;;;;6055368;23;20043;-81
2023/06/25 11:23:44;;;;;;;4.20;3.80;;;42.20;38.90;;;;;;6031865;23;20015;-81
2023/06/25 11:26:12;;;;;;;3.53;3.15;;;42.30;38.70;;;;;;6032212;23;20093;-81
2023/06/25 11:28:38;;;;;;;4.10;3.70;;;42.20;38.10;;;;;;6055341;23;20015;-81
2023/06/25 11:31:03;;;;;;;4.00;3.70;;;42.30;38.90;;;;;;6031795;23;20446;-81
2023/06/25 11:33:29;;;;;;;4.57;3.90;;;42.30;38.80;;;;;;6032051;23;20370;-81
2023/06/25 11:36:22;;;;;;;3.95;3.65;;;42.60;38.80;;;;;;6055669;23;20015;-80
2023/06/25 11:38:47;;;;;;;4.05;3.75;;;42.70;38.30;;;;;;6053278;23;20014;-81
2023/06/25 11:41:13;;;;;;;4.20;3.85;;;42.90;38.50;;;;;;6031525;23;20089;-81
2023/06/25 11:43:38;;;;;;;3.92;3.63;;;43.20;36.50;;;;;;6055288;23;20041;-80
2023/06/25 11:46:04;;;;;;;4.63;4.03;;;43.20;37.90;;;;;;6031265;23;20150;-81
2023/06/25 11:48:30;;;;;;;5.28;3.53;;;43.30;37.10;;;;;;6055391;23;20661;-81
2023/06/25 11:51:04;;;;;;;3.65;3.35;;;43.20;37.30;;;;;;6031938;23;20027;-81
2023/06/25 11:53:30;;;;;;;4.55;3.92;;;43.30;37.10;;;;;;6053743;23;20034;-81
2023/06/25 11:55:56;;;;;;;4.18;3.88;;;43.50;37.10;;;;;;6053895;23;20469;-79
2023/06/25 11:58:22;;;;;;;4.35;3.95;;;43.60;36.80;;;;;;6033316;23;20735;-80
2023/06/25 12:00:47;;;;;;;3.35;3.05;;;43.50;37.50;;;;;;6032012;23;20020;-80
2023/06/25 12:03:13;;;;;;;4.40;4.07;;;43.60;37.00;;;;;;6032422;23;20023;-80
2023/06/25 12:05:39;;;;;;;5.63;4.05;;;43.60;36.50;;;;;;6055912;23;20472;-80
2023/06/25 12:08:04;;;;;;;3.72;3.42;;;43.70;35.60;;;;;;6031820;23;20331;-79
2023/06/25 12:10:30;;;;;;;4.38;3.60;;;43.50;37.00;;;;;;6052194;23;20414;-80
2023/06/25 12:12:56;;;;;;;3.88;3.58;;;43.60;36.60;;;;;;6031513;23;20042;-79
2023/06/25 12:15:21;;;;;;;3.83;3.50;;;43.90;36.40;;;;;;6056764;23;20290;-80
2023/06/25 12:17:47;;;;;;;5.00;3.58;;;43.90;36.10;;;;;;6055028;23;20124;-80
2023/06/25 12:20:13;;;;;;;4.47;3.47;;;44.00;36.20;;;;;;6054955;23;20452;-81
2023/06/25 12:22:38;;;;;;;3.55;3.35;;;44.20;34.80;;;;;;6055886;23;20007;-79
2023/06/25 12:25:04;;;;;;;3.72;3.35;;;44.10;35.70;;;;;;6056086;23;20011;-79
2023/06/25 12:27:30;;;;;;;4.25;3.95;;;44.40;36.20;;;;;;6007694;23;20078;-79
2023/06/25 12:29:55;;;;;;;4.53;3.55;;;44.30;34.40;;;;;;6030076;23;20058;-80
2023/06/25 12:32:21;;;;;;;3.67;3.38;;;44.40;35.70;;;;;;6058127;23;20021;-80
2023/06/25 12:34:46;;;;;;;3.97;3.60;;;44.40;33.80;;;;;;6033230;23;20019;-79
2023/06/25 12:37:12;;;;;;;3.92;3.63;;;44.30;35.20;;;;;;6033070;23;20064;-79
2023/06/25 12:39:37;;;;;;;3.83;3.45;;;44.30;34.70;;;;;;6056240;23;20331;-79